首页
METAR-TAF:

METAR-TAF

机场 :

瓦讷, 法国

纬度: 47-43-19N, 经度: 2-43-41W, 海拔: 130米

当前天气观测

该预报发布于34分钟前的00:00 UTC
风速8节,风向北转东北
温度 15°C
湿度 72%
气压 1033 hPa
能见度10公里或以上
1500米以下无云,无积雨云

METAR: LFRV 270000Z AUTO 03008KT CAVOK 15/10 Q1033

时间: 02:34 (00:34 UTC)


TAF: 丢失

超过4000个机场的气象观测和天气预报(METAR&TAF报告)。

可查询的气象台以黄色和红色小点在地图上表示。

将鼠标移到小点上方,可查看气象台名称。

然后点击查看天气观测和预报。

如需切换地图:点击带黑十字的绿色按钮放大地图;点击带横线的绿色按钮缩小地图;或者点击绿色箭头查看邻近地区的地图。


METAR-TAF: